createdAt,value
2018-04-16T00:00:30.675Z,1004.31
2018-04-16T00:01:29.828Z,1004.30
2018-04-16T00:03:24.281Z,1004.27
2018-04-16T00:04:23.497Z,1004.26
2018-04-16T00:06:17.073Z,1004.23
2018-04-16T00:07:17.044Z,1004.20
2018-04-16T00:09:10.669Z,1004.18
2018-04-16T00:10:10.636Z,1004.17
2018-04-16T00:12:04.272Z,1004.15
2018-04-16T00:13:04.239Z,1004.16
2018-04-16T00:14:57.974Z,1004.17
2018-04-16T00:15:57.959Z,1004.13
2018-04-16T00:17:51.579Z,1004.17
2018-04-16T00:18:51.551Z,1004.21
2018-04-16T00:20:45.980Z,1004.18
2018-04-16T00:21:45.195Z,1004.17
2018-04-16T00:23:38.718Z,1004.14
2018-04-16T00:24:38.683Z,1004.13
2018-04-16T00:26:32.358Z,1004.12
2018-04-16T00:27:32.314Z,1004.12
2018-04-16T00:29:25.831Z,1004.08
2018-04-16T00:30:25.817Z,1004.10
2018-04-16T00:32:20.248Z,1004.11
2018-04-16T00:33:19.380Z,1004.11
2018-04-16T00:35:13.804Z,1004.12
2018-04-16T00:36:13.015Z,1004.13
2018-04-16T00:38:06.657Z,1004.11
2018-04-16T00:39:06.626Z,1004.15
2018-04-16T00:41:00.242Z,1004.11
2018-04-16T00:42:00.211Z,1004.12
2018-04-16T00:43:53.788Z,1004.12
2018-04-16T00:44:53.777Z,1004.09
2018-04-16T00:46:48.214Z,1004.10
2018-04-16T00:47:47.437Z,1004.13
2018-04-16T00:49:41.138Z,1004.14
2018-04-16T00:50:41.098Z,1004.13
2018-04-16T00:52:35.535Z,1004.13
2018-04-16T00:53:34.707Z,1004.13
2018-04-16T00:55:28.364Z,1004.15
2018-04-16T00:56:28.339Z,1004.12
2018-04-16T00:58:21.877Z,1004.16
2018-04-16T00:59:21.827Z,1004.16
2018-04-16T01:01:16.265Z,1004.17
2018-04-16T01:02:15.496Z,1004.20
2018-04-16T01:04:09.149Z,1004.21
2018-04-16T01:05:09.125Z,1004.21
2018-04-16T01:07:03.548Z,1004.22
2018-04-16T01:08:02.634Z,1004.21
2018-04-16T01:09:56.326Z,1004.21
2018-04-16T01:10:56.277Z,1004.21
2018-04-16T01:12:49.956Z,1004.26
2018-04-16T01:13:49.898Z,1004.27
2018-04-16T01:14:49.897Z,1004.29
2018-04-16T01:15:49.888Z,1004.27
2018-04-16T01:16:49.880Z,1004.26
2018-04-16T01:17:49.877Z,1004.29
2018-04-16T01:18:49.877Z,1004.26
2018-04-16T01:19:49.860Z,1004.26
2018-04-16T01:20:49.854Z,1004.27
2018-04-16T01:21:49.847Z,1004.23
2018-04-16T01:22:49.842Z,1004.23
2018-04-16T01:23:49.835Z,1004.24
2018-04-16T01:24:49.826Z,1004.24
2018-04-16T01:25:49.828Z,1004.25
2018-04-16T01:26:49.814Z,1004.25
2018-04-16T01:27:49.810Z,1004.28
2018-04-16T01:28:49.802Z,1004.29
2018-04-16T01:29:49.795Z,1004.28
2018-04-16T01:30:49.788Z,1004.27
2018-04-16T01:31:49.781Z,1004.28
2018-04-16T01:32:49.777Z,1004.31
2018-04-16T01:33:49.767Z,1004.33
2018-04-16T01:34:49.763Z,1004.36
2018-04-16T01:35:49.761Z,1004.33
2018-04-16T01:36:49.749Z,1004.33
2018-04-16T01:37:49.745Z,1004.32
2018-04-16T01:38:49.733Z,1004.30
2018-04-16T01:39:49.728Z,1004.30
2018-04-16T01:40:49.722Z,1004.32
2018-04-16T01:41:49.715Z,1004.30
2018-04-16T01:42:49.710Z,1004.29
2018-04-16T01:43:49.702Z,1004.36
2018-04-16T01:44:49.691Z,1004.36
2018-04-16T01:45:49.686Z,1004.36
2018-04-16T01:46:49.681Z,1004.32
2018-04-16T01:47:49.677Z,1004.35
2018-04-16T01:48:49.668Z,1004.33
2018-04-16T01:49:49.662Z,1004.33
2018-04-16T01:50:49.655Z,1004.35
2018-04-16T01:51:49.646Z,1004.33
2018-04-16T01:52:49.637Z,1004.36
2018-04-16T01:53:49.640Z,1004.33
2018-04-16T01:54:49.628Z,1004.36
2018-04-16T01:55:49.618Z,1004.39
2018-04-16T01:56:49.612Z,1004.41
2018-04-16T01:57:49.606Z,1004.41
2018-04-16T01:58:49.597Z,1004.43
2018-04-16T01:59:49.591Z,1004.41
2018-04-16T02:00:49.586Z,1004.44
2018-04-16T02:01:49.579Z,1004.40
2018-04-16T02:02:49.570Z,1004.41
2018-04-16T02:03:49.569Z,1004.44
2018-04-16T02:04:49.555Z,1004.48
2018-04-16T02:05:49.566Z,1004.46
2018-04-16T02:06:49.549Z,1004.47
2018-04-16T02:07:49.536Z,1004.49
2018-04-16T02:08:49.530Z,1004.45
2018-04-16T02:09:49.523Z,1004.53
2018-04-16T02:10:49.515Z,1004.48
2018-04-16T02:11:49.504Z,1004.49
2018-04-16T02:12:49.503Z,1004.45
2018-04-16T02:13:49.493Z,1004.46
2018-04-16T02:14:49.485Z,1004.46
2018-04-16T02:15:49.483Z,1004.47
2018-04-16T02:16:49.471Z,1004.46
2018-04-16T02:17:49.466Z,1004.47
2018-04-16T02:18:49.460Z,1004.46
2018-04-16T02:19:49.465Z,1004.43
2018-04-16T02:20:49.441Z,1004.45
2018-04-16T02:21:49.439Z,1004.44
2018-04-16T02:22:49.431Z,1004.41
2018-04-16T02:23:49.420Z,1004.44
2018-04-16T02:24:49.423Z,1004.42
2018-04-16T02:25:49.413Z,1004.42
2018-04-16T02:26:49.399Z,1004.34
2018-04-16T02:27:49.394Z,1004.38
2018-04-16T02:28:49.387Z,1004.36
2018-04-16T02:29:49.385Z,1004.40
2018-04-16T02:30:49.376Z,1004.40
2018-04-16T02:31:49.366Z,1004.42
2018-04-16T02:32:49.359Z,1004.40
2018-04-16T02:33:49.349Z,1004.40
2018-04-16T02:34:49.346Z,1004.36
2018-04-16T02:35:49.347Z,1004.39
2018-04-16T02:36:49.334Z,1004.42
2018-04-16T02:37:49.331Z,1004.36
2018-04-16T02:38:49.322Z,1004.40
2018-04-16T02:39:49.315Z,1004.40
2018-04-16T02:40:49.312Z,1004.39
2018-04-16T02:41:49.296Z,1004.38
2018-04-16T02:42:49.292Z,1004.40
2018-04-16T02:43:49.286Z,1004.47
2018-04-16T02:44:49.285Z,1004.46
2018-04-16T02:45:49.270Z,1004.43
2018-04-16T02:46:49.259Z,1004.45
2018-04-16T02:47:49.253Z,1004.46
2018-04-16T02:48:49.246Z,1004.49
2018-04-16T02:49:49.243Z,1004.46
2018-04-16T02:50:49.243Z,1004.48
2018-04-16T02:51:49.230Z,1004.48
2018-04-16T02:52:49.223Z,1004.48
2018-04-16T02:53:49.216Z,1004.50
2018-04-16T02:54:49.223Z,1004.50
2018-04-16T02:55:49.200Z,1004.51
2018-04-16T02:56:49.192Z,1004.49
2018-04-16T02:57:49.187Z,1004.52
2018-04-16T02:58:49.184Z,1004.54
2018-04-16T02:59:49.175Z,1004.53
2018-04-16T03:00:49.163Z,1004.54
2018-04-16T03:01:49.153Z,1004.51
2018-04-16T03:02:49.147Z,1004.52
2018-04-16T03:03:49.140Z,1004.52
2018-04-16T03:04:49.139Z,1004.52
2018-04-16T03:05:49.129Z,1004.54
2018-04-16T03:06:49.116Z,1004.53
2018-04-16T03:07:49.111Z,1004.56
2018-04-16T03:08:49.111Z,1004.60
2018-04-16T03:09:49.101Z,1004.55
2018-04-16T03:10:49.095Z,1004.56
2018-04-16T03:11:49.087Z,1004.53
2018-04-16T03:12:49.080Z,1004.61
2018-04-16T03:13:49.071Z,1004.58
2018-04-16T03:14:49.065Z,1004.59
2018-04-16T03:15:49.056Z,1004.60
2018-04-16T03:16:49.058Z,1004.61
2018-04-16T03:17:49.043Z,1004.59
2018-04-16T03:18:49.038Z,1004.62
2018-04-16T03:19:49.029Z,1004.63
2018-04-16T03:20:49.017Z,1004.58
2018-04-16T03:21:49.016Z,1004.59
2018-04-16T03:22:49.003Z,1004.62
2018-04-16T03:23:49.003Z,1004.60
2018-04-16T03:24:48.992Z,1004.61
2018-04-16T03:25:48.987Z,1004.59
2018-04-16T03:26:48.976Z,1004.57
2018-04-16T03:27:48.973Z,1004.56
2018-04-16T03:28:48.964Z,1004.57
2018-04-16T03:29:48.957Z,1004.57
2018-04-16T03:30:48.955Z,1004.61
2018-04-16T03:31:48.945Z,1004.61
2018-04-16T03:32:48.937Z,1004.60
2018-04-16T03:33:48.928Z,1004.61
2018-04-16T03:34:48.921Z,1004.65
2018-04-16T03:35:48.914Z,1004.64
2018-04-16T03:36:48.910Z,1004.64
2018-04-16T03:37:48.896Z,1004.65
2018-04-16T03:38:48.893Z,1004.66
2018-04-16T03:39:48.884Z,1004.62
2018-04-16T03:40:48.877Z,1004.64
2018-04-16T03:41:48.866Z,1004.68
2018-04-16T03:42:48.860Z,1004.69
2018-04-16T03:43:48.858Z,1004.70
2018-04-16T03:44:48.849Z,1004.72
2018-04-16T03:45:48.842Z,1004.76
2018-04-16T03:46:48.831Z,1004.76
2018-04-16T03:47:48.829Z,1004.74
2018-04-16T03:48:48.819Z,1004.74
2018-04-16T03:49:48.807Z,1004.76
2018-04-16T03:50:48.798Z,1004.75
2018-04-16T03:51:48.804Z,1004.74
2018-04-16T03:52:48.787Z,1004.73
2018-04-16T03:53:48.781Z,1004.73
2018-04-16T03:54:48.776Z,1004.74
2018-04-16T03:55:48.763Z,1004.73
2018-04-16T03:56:48.758Z,1004.74
2018-04-16T03:57:48.748Z,1004.74
2018-04-16T03:58:48.762Z,1004.75
2018-04-16T03:59:48.735Z,1004.78
2018-04-16T04:00:48.729Z,1004.76
2018-04-16T04:01:48.718Z,1004.80
2018-04-16T04:02:48.712Z,1004.82
2018-04-16T04:03:48.708Z,1004.81
2018-04-16T04:04:48.694Z,1004.81
2018-04-16T04:05:48.694Z,1004.82
2018-04-16T04:06:48.685Z,1004.83
2018-04-16T04:07:48.677Z,1004.82
2018-04-16T04:08:48.667Z,1004.84
2018-04-16T04:09:48.657Z,1004.86
2018-04-16T04:10:48.651Z,1004.85
2018-04-16T04:11:48.644Z,1004.85
2018-04-16T04:12:48.645Z,1004.87
2018-04-16T04:13:48.632Z,1004.93
2018-04-16T04:14:48.624Z,1004.96
2018-04-16T04:15:48.619Z,1004.94
2018-04-16T04:16:48.603Z,1004.91
2018-04-16T04:17:48.598Z,1004.95
2018-04-16T04:18:48.590Z,1004.97
2018-04-16T04:19:48.586Z,1004.97
2018-04-16T04:20:48.576Z,1004.98
2018-04-16T04:21:48.570Z,1004.98
2018-04-16T04:22:48.562Z,1004.97
2018-04-16T04:23:48.580Z,1005.01
2018-04-16T04:24:48.549Z,1005.04
2018-04-16T04:25:48.540Z,1005.06
2018-04-16T04:26:48.533Z,1005.04
2018-04-16T04:27:48.527Z,1005.02
2018-04-16T04:28:48.517Z,1005.05
2018-04-16T04:29:48.505Z,1005.03
2018-04-16T04:30:48.500Z,1005.01
2018-04-16T04:31:48.495Z,1005.03
2018-04-16T04:32:48.488Z,1005.06
2018-04-16T04:33:48.480Z,1005.06
2018-04-16T04:34:48.475Z,1005.06
2018-04-16T04:35:48.465Z,1005.05
2018-04-16T04:36:48.456Z,1005.09
2018-04-16T04:37:48.450Z,1005.07
2018-04-16T04:38:48.442Z,1005.08
2018-04-16T04:39:48.436Z,1005.08
2018-04-16T04:40:48.427Z,1005.11
2018-04-16T04:41:48.420Z,1005.13
2018-04-16T04:42:48.416Z,1005.15
2018-04-16T04:43:48.405Z,1005.17
2018-04-16T04:44:48.402Z,1005.17
2018-04-16T04:45:48.387Z,1005.19
2018-04-16T04:46:48.381Z,1005.21
2018-04-16T04:47:48.374Z,1005.21
2018-04-16T04:48:48.367Z,1005.21
2018-04-16T04:49:48.395Z,1005.22
2018-04-16T04:50:48.348Z,1005.25
2018-04-16T04:51:48.340Z,1005.21
2018-04-16T04:52:48.337Z,1005.27
2018-04-16T04:53:48.328Z,1005.22
2018-04-16T04:54:48.320Z,1005.24
2018-04-16T04:55:48.318Z,1005.21
2018-04-16T04:56:48.302Z,1005.24
2018-04-16T04:57:48.293Z,1005.23
2018-04-16T04:58:48.292Z,1005.23
2018-04-16T04:59:48.292Z,1005.28
2018-04-16T05:00:48.279Z,1005.30
2018-04-16T05:01:48.268Z,1005.28
2018-04-16T05:02:48.260Z,1005.30
2018-04-16T05:03:48.252Z,1005.33
2018-04-16T05:04:48.242Z,1005.33
2018-04-16T05:05:48.232Z,1005.31
2018-04-16T05:06:48.226Z,1005.30
2018-04-16T05:07:48.225Z,1005.33
2018-04-16T05:08:48.212Z,1005.35
2018-04-16T05:09:48.208Z,1005.39
2018-04-16T05:10:48.198Z,1005.40
2018-04-16T05:11:48.186Z,1005.41
2018-04-16T05:12:48.179Z,1005.42
2018-04-16T05:13:48.171Z,1005.38
2018-04-16T05:14:48.175Z,1005.40
2018-04-16T05:15:48.161Z,1005.41
2018-04-16T05:16:48.149Z,1005.44
2018-04-16T05:17:48.145Z,1005.43
2018-04-16T05:18:48.135Z,1005.44
2018-04-16T05:19:48.125Z,1005.44
2018-04-16T05:20:48.127Z,1005.50
2018-04-16T05:21:48.115Z,1005.49
2018-04-16T05:22:48.112Z,1005.51
2018-04-16T05:23:48.102Z,1005.53
2018-04-16T05:24:48.089Z,1005.53
2018-04-16T05:25:48.079Z,1005.48
2018-04-16T05:26:48.072Z,1005.49
2018-04-16T05:27:48.068Z,1005.53
2018-04-16T05:28:48.060Z,1005.55
2018-04-16T05:29:48.057Z,1005.55
2018-04-16T05:30:48.046Z,1005.57
2018-04-16T05:31:48.054Z,1005.59
2018-04-16T05:32:48.027Z,1005.61
2018-04-16T05:33:48.028Z,1005.65
2018-04-16T05:34:48.015Z,1005.69
2018-04-16T05:35:48.009Z,1005.69
2018-04-16T05:36:48.003Z,1005.75
2018-04-16T05:37:47.991Z,1005.79
2018-04-16T05:38:47.981Z,1005.80
2018-04-16T05:39:47.975Z,1005.88
2018-04-16T05:40:47.966Z,1005.87
2018-04-16T05:41:47.965Z,1005.89
2018-04-16T05:42:47.962Z,1005.89
2018-04-16T05:43:47.951Z,1005.82
2018-04-16T05:44:47.944Z,1005.84
2018-04-16T05:45:47.935Z,1005.90
2018-04-16T05:46:47.932Z,1005.91
2018-04-16T05:47:47.925Z,1005.96
2018-04-16T05:48:47.911Z,1005.99
2018-04-16T05:49:47.915Z,1005.99
2018-04-16T05:50:47.904Z,1006.03
2018-04-16T05:51:47.893Z,1006.03
2018-04-16T05:52:47.885Z,1006.06
2018-04-16T05:53:47.880Z,1006.03
2018-04-16T05:54:47.874Z,1006.04
2018-04-16T05:55:47.868Z,1006.07
2018-04-16T05:56:47.862Z,1006.04
2018-04-16T05:57:47.855Z,1006.06
2018-04-16T05:58:47.848Z,1006.08
2018-04-16T05:59:47.842Z,1006.07
2018-04-16T06:00:47.830Z,1006.12
2018-04-16T06:01:47.827Z,1006.13
2018-04-16T06:02:47.817Z,1006.13
2018-04-16T06:03:47.816Z,1006.20
2018-04-16T06:04:47.805Z,1006.17
2018-04-16T06:05:47.801Z,1006.22
2018-04-16T06:06:47.791Z,1006.21
2018-04-16T06:07:47.792Z,1006.19
2018-04-16T06:08:47.778Z,1006.24
2018-04-16T06:09:47.776Z,1006.25
2018-04-16T06:10:47.766Z,1006.29
2018-04-16T06:11:47.770Z,1006.25
2018-04-16T06:12:47.759Z,1006.26
2018-04-16T06:13:47.744Z,1006.25
2018-04-16T06:14:47.743Z,1006.27
2018-04-16T06:15:47.737Z,1006.31
2018-04-16T06:16:47.730Z,1006.31
2018-04-16T06:17:47.723Z,1006.31
2018-04-16T06:18:47.718Z,1006.30
2018-04-16T06:19:47.711Z,1006.29
2018-04-16T06:20:47.705Z,1006.28
2018-04-16T06:21:47.697Z,1006.27
2018-04-16T06:22:47.692Z,1006.29
2018-04-16T06:23:47.686Z,1006.27
2018-04-16T06:24:47.679Z,1006.29
2018-04-16T06:25:47.669Z,1006.25
2018-04-16T06:26:47.667Z,1006.31
2018-04-16T06:27:47.658Z,1006.32
2018-04-16T06:28:47.660Z,1006.31
2018-04-16T06:29:47.651Z,1006.31
2018-04-16T06:30:47.644Z,1006.29
2018-04-16T06:31:47.646Z,1006.33
2018-04-16T06:32:47.630Z,1006.30
2018-04-16T06:33:47.626Z,1006.32
2018-04-16T06:34:47.622Z,1006.38
2018-04-16T06:35:47.617Z,1006.29
2018-04-16T06:36:47.616Z,1006.34
2018-04-16T06:37:47.605Z,1006.37
2018-04-16T06:38:47.599Z,1006.40
2018-04-16T06:39:47.593Z,1006.41
2018-04-16T06:40:47.588Z,1006.44
2018-04-16T06:41:47.581Z,1006.38
2018-04-16T06:42:47.574Z,1006.38
2018-04-16T06:43:47.572Z,1006.41
2018-04-16T06:44:47.566Z,1006.39
2018-04-16T06:45:47.564Z,1006.45
2018-04-16T06:46:47.560Z,1006.42
2018-04-16T06:47:47.549Z,1006.46
2018-04-16T06:48:47.542Z,1006.43
2018-04-16T06:49:47.537Z,1006.45
2018-04-16T06:50:47.541Z,1006.48
2018-04-16T06:51:47.529Z,1006.46
2018-04-16T06:52:47.522Z,1006.49
2018-04-16T06:53:47.517Z,1006.48
2018-04-16T06:54:47.512Z,1006.52
2018-04-16T06:55:47.519Z,1006.52
2018-04-16T06:56:47.501Z,1006.53
2018-04-16T06:57:47.499Z,1006.54
2018-04-16T06:58:47.495Z,1006.53
2018-04-16T06:59:47.511Z,1006.58
2018-04-16T07:00:47.498Z,1006.60
2018-04-16T07:01:47.479Z,1006.60
2018-04-16T07:02:47.480Z,1006.63
2018-04-16T07:03:47.468Z,1006.67
2018-04-16T07:04:47.479Z,1006.67
2018-04-16T07:05:47.468Z,1006.69
2018-04-16T07:06:47.456Z,1006.74
2018-04-16T07:07:47.510Z,1006.73
2018-04-16T07:08:47.533Z,1006.76
2018-04-16T07:09:47.439Z,1006.76
2018-04-16T07:10:47.437Z,1006.80
2018-04-16T07:11:47.436Z,1006.78
2018-04-16T07:12:47.428Z,1006.78
2018-04-16T07:13:47.439Z,1006.79
2018-04-16T07:14:47.425Z,1006.82
2018-04-16T07:15:47.450Z,1006.83
2018-04-16T07:16:47.430Z,1006.83
2018-04-16T07:17:47.561Z,1006.79
2018-04-16T07:18:47.494Z,1006.76
2018-04-16T07:19:47.403Z,1006.77
2018-04-16T07:20:47.396Z,1006.71
2018-04-16T07:21:47.394Z,1006.72
2018-04-16T07:22:47.393Z,1006.73
2018-04-16T07:23:47.384Z,1006.75
2018-04-16T07:24:47.382Z,1006.77
2018-04-16T07:25:47.377Z,1006.82
2018-04-16T07:26:47.380Z,1006.83
2018-04-16T07:27:47.370Z,1006.86
2018-04-16T07:28:47.365Z,1006.84
2018-04-16T07:29:47.364Z,1006.88
2018-04-16T07:30:47.351Z,1006.95
2018-04-16T07:31:47.349Z,1006.95
2018-04-16T07:32:47.346Z,1006.97
2018-04-16T07:33:47.342Z,1006.99
2018-04-16T07:34:47.342Z,1007.00
2018-04-16T07:35:47.342Z,1007.00
2018-04-16T07:36:47.333Z,1006.99
2018-04-16T07:37:47.327Z,1007.01
2018-04-16T07:38:47.322Z,1007.08
2018-04-16T07:39:47.320Z,1007.05
2018-04-16T07:40:47.318Z,1007.08
2018-04-16T07:41:47.339Z,1007.10
2018-04-16T07:42:47.312Z,1007.10
2018-04-16T07:43:47.362Z,1007.12
2018-04-16T07:44:47.306Z,1007.14
2018-04-16T07:45:47.301Z,1007.21
2018-04-16T07:46:47.294Z,1007.16
2018-04-16T07:47:47.294Z,1007.17
2018-04-16T07:48:47.288Z,1007.15
2018-04-16T07:49:47.282Z,1007.21
2018-04-16T07:50:47.283Z,1007.22
2018-04-16T07:51:47.277Z,1007.20
2018-04-16T07:52:47.295Z,1007.24
2018-04-16T07:53:47.269Z,1007.22
2018-04-16T07:54:47.271Z,1007.30
2018-04-16T07:55:47.267Z,1007.27
2018-04-16T07:56:47.265Z,1007.27
2018-04-16T07:57:47.268Z,1007.25
2018-04-16T07:58:47.260Z,1007.24
2018-04-16T07:59:47.253Z,1007.26
2018-04-16T08:00:47.249Z,1007.30
2018-04-16T08:01:47.245Z,1007.31
2018-04-16T08:02:47.246Z,1007.36
2018-04-16T08:03:47.245Z,1007.42
2018-04-16T08:04:47.243Z,1007.39
2018-04-16T08:05:47.239Z,1007.38
2018-04-16T08:06:47.234Z,1007.40
2018-04-16T08:07:47.238Z,1007.44
2018-04-16T08:08:47.239Z,1007.47
2018-04-16T08:09:47.234Z,1007.48
2018-04-16T08:10:47.233Z,1007.48
2018-04-16T08:11:47.235Z,1007.49
2018-04-16T08:12:47.231Z,1007.49
2018-04-16T08:13:47.236Z,1007.53
2018-04-16T08:14:47.234Z,1007.51
2018-04-16T08:15:47.236Z,1007.55
2018-04-16T08:16:47.238Z,1007.57
2018-04-16T08:17:47.279Z,1007.55
2018-04-16T08:18:47.245Z,1007.53
2018-04-16T08:19:47.234Z,1007.57
2018-04-16T08:20:47.236Z,1007.54
2018-04-16T08:21:47.238Z,1007.57
2018-04-16T08:22:47.246Z,1007.59
2018-04-16T08:23:47.241Z,1007.58
2018-04-16T08:24:47.246Z,1007.60
2018-04-16T08:25:47.242Z,1007.62
2018-04-16T08:26:47.245Z,1007.60
2018-04-16T08:27:47.248Z,1007.59
2018-04-16T08:28:47.252Z,1007.62
2018-04-16T08:29:47.257Z,1007.58
2018-04-16T08:30:47.259Z,1007.58
2018-04-16T08:31:47.257Z,1007.57
2018-04-16T08:32:47.261Z,1007.59
2018-04-16T08:33:47.260Z,1007.62
2018-04-16T08:34:47.264Z,1007.65
2018-04-16T08:35:47.265Z,1007.62
2018-04-16T08:36:47.271Z,1007.62
2018-04-16T08:37:47.273Z,1007.59
2018-04-16T08:38:47.275Z,1007.63
2018-04-16T08:39:47.278Z,1007.67
2018-04-16T08:40:47.278Z,1007.68
2018-04-16T08:41:47.281Z,1007.71
2018-04-16T08:42:47.286Z,1007.71
2018-04-16T08:43:47.294Z,1007.63
2018-04-16T08:44:47.295Z,1007.68
2018-04-16T08:45:47.297Z,1007.70
2018-04-16T08:46:47.301Z,1007.69
2018-04-16T08:47:47.302Z,1007.73
2018-04-16T08:48:47.307Z,1007.75
2018-04-16T08:49:47.314Z,1007.70
2018-04-16T08:50:47.323Z,1007.77
2018-04-16T08:51:47.326Z,1007.75
2018-04-16T08:52:47.329Z,1007.77
2018-04-16T08:53:47.331Z,1007.72
2018-04-16T08:54:47.336Z,1007.73
2018-04-16T08:55:47.341Z,1007.75
2018-04-16T08:56:47.346Z,1007.76
2018-04-16T08:57:47.350Z,1007.79
2018-04-16T08:58:47.366Z,1007.81
2018-04-16T08:59:47.363Z,1007.83
2018-04-16T09:00:47.375Z,1007.79
2018-04-16T09:01:47.370Z,1007.80
2018-04-16T09:02:47.378Z,1007.82
2018-04-16T09:03:47.381Z,1007.87
2018-04-16T09:04:47.391Z,1007.88
2018-04-16T09:05:47.396Z,1007.90
2018-04-16T09:06:47.408Z,1007.93
2018-04-16T09:07:47.407Z,1007.94
2018-04-16T09:08:47.429Z,1007.94
2018-04-16T09:09:47.417Z,1007.94
2018-04-16T09:10:47.426Z,1007.96
2018-04-16T09:11:47.430Z,1007.94
2018-04-16T09:12:47.434Z,1007.95
2018-04-16T09:13:47.441Z,1007.97
2018-04-16T09:14:47.443Z,1008.00
2018-04-16T09:15:47.452Z,1007.98
2018-04-16T09:16:47.461Z,1007.98
2018-04-16T09:17:47.464Z,1008.01
2018-04-16T09:18:47.472Z,1008.03
2018-04-16T09:19:47.477Z,1008.00
2018-04-16T09:20:47.479Z,1007.98
2018-04-16T09:21:47.483Z,1008.00
2018-04-16T09:22:47.492Z,1008.02
2018-04-16T09:23:47.499Z,1008.04
2018-04-16T09:24:47.507Z,1008.09
2018-04-16T09:25:47.512Z,1008.06
2018-04-16T09:26:47.524Z,1008.07
2018-04-16T09:27:47.525Z,1008.09
2018-04-16T09:28:47.528Z,1008.05
2018-04-16T09:29:47.534Z,1008.14
2018-04-16T09:30:47.549Z,1008.11
2018-04-16T09:31:47.555Z,1008.11
2018-04-16T09:32:47.565Z,1008.05
2018-04-16T09:33:47.565Z,1008.09
2018-04-16T09:34:47.568Z,1008.14
2018-04-16T09:35:47.574Z,1008.10
2018-04-16T09:36:47.579Z,1008.13
2018-04-16T09:37:47.591Z,1008.16
2018-04-16T09:38:47.592Z,1008.15
2018-04-16T09:39:47.597Z,1008.13
2018-04-16T09:40:47.599Z,1008.17
2018-04-16T09:41:47.603Z,1008.17
2018-04-16T09:42:47.611Z,1008.16
2018-04-16T09:43:47.618Z,1008.16
2018-04-16T09:44:47.623Z,1008.12
2018-04-16T09:45:47.625Z,1008.18
2018-04-16T09:46:47.631Z,1008.18
2018-04-16T09:47:47.638Z,1008.17
2018-04-16T09:48:47.638Z,1008.17
2018-04-16T09:49:47.644Z,1008.13
2018-04-16T09:50:47.651Z,1008.14
2018-04-16T09:51:47.657Z,1008.13
2018-04-16T09:52:47.658Z,1008.17
2018-04-16T09:53:47.665Z,1008.19
2018-04-16T09:54:47.664Z,1008.18
2018-04-16T09:55:47.669Z,1008.15
2018-04-16T09:56:47.673Z,1008.13
2018-04-16T09:57:47.679Z,1008.20
2018-04-16T09:58:47.685Z,1008.16
2018-04-16T09:59:47.692Z,1008.19
2018-04-16T10:00:47.691Z,1008.19
2018-04-16T10:01:47.690Z,1008.17
2018-04-16T10:02:47.694Z,1008.17
2018-04-16T10:03:47.703Z,1008.15
2018-04-16T10:04:47.708Z,1008.15
2018-04-16T10:05:47.710Z,1008.16
2018-04-16T10:06:47.716Z,1008.22
2018-04-16T10:07:47.722Z,1008.17
2018-04-16T10:08:47.729Z,1008.21
2018-04-16T10:09:47.766Z,1008.20
2018-04-16T10:10:47.729Z,1008.22
2018-04-16T10:11:47.737Z,1008.19
2018-04-16T10:12:47.740Z,1008.21
2018-04-16T10:13:47.746Z,1008.21
2018-04-16T10:14:47.753Z,1008.22
2018-04-16T10:15:47.752Z,1008.16
2018-04-16T10:16:47.756Z,1008.20
2018-04-16T10:17:47.765Z,1008.27
2018-04-16T10:18:47.769Z,1008.27
2018-04-16T10:19:47.775Z,1008.25
2018-04-16T10:20:47.779Z,1008.26
2018-04-16T10:21:47.781Z,1008.24
2018-04-16T10:22:47.788Z,1008.28
2018-04-16T10:23:47.798Z,1008.27
2018-04-16T10:24:47.802Z,1008.24
2018-04-16T10:25:47.808Z,1008.28
2018-04-16T10:26:47.815Z,1008.29
2018-04-16T10:27:47.821Z,1008.28
2018-04-16T10:28:47.856Z,1008.28
2018-04-16T10:29:47.834Z,1008.29
2018-04-16T10:30:47.840Z,1008.25
2018-04-16T10:31:47.852Z,1008.24
2018-04-16T10:32:47.859Z,1008.19
2018-04-16T10:33:47.867Z,1008.25
2018-04-16T10:34:47.872Z,1008.20
2018-04-16T10:35:47.875Z,1008.28
2018-04-16T10:36:47.883Z,1008.24
2018-04-16T10:37:47.889Z,1008.21
2018-04-16T10:38:47.900Z,1008.17
2018-04-16T10:39:47.921Z,1008.26
2018-04-16T10:40:47.928Z,1008.22
2018-04-16T10:41:47.913Z,1008.26
2018-04-16T10:42:47.920Z,1008.26
2018-04-16T10:43:47.927Z,1008.25
2018-04-16T10:44:47.931Z,1008.23
2018-04-16T10:45:47.939Z,1008.25
2018-04-16T10:46:47.988Z,1008.21
2018-04-16T10:47:47.955Z,1008.20
2018-04-16T10:48:47.959Z,1008.17
2018-04-16T10:49:47.959Z,1008.21
2018-04-16T10:50:47.962Z,1008.18
2018-04-16T10:51:47.969Z,1008.23
2018-04-16T10:52:47.975Z,1008.21
2018-04-16T10:53:47.975Z,1008.22
2018-04-16T10:54:47.979Z,1008.28
2018-04-16T10:55:47.984Z,1008.26
2018-04-16T10:56:47.993Z,1008.29
2018-04-16T10:57:48.017Z,1008.31
2018-04-16T10:58:48.006Z,1008.35
2018-04-16T10:59:48.007Z,1008.32
2018-04-16T11:00:48.011Z,1008.38
2018-04-16T11:01:48.016Z,1008.40
2018-04-16T11:02:48.024Z,1008.40
2018-04-16T11:03:48.031Z,1008.39
2018-04-16T11:04:48.038Z,1008.39
2018-04-16T11:05:48.043Z,1008.36
2018-04-16T11:06:48.048Z,1008.37
2018-04-16T11:07:48.058Z,1008.40
2018-04-16T11:08:48.061Z,1008.35
2018-04-16T11:09:48.061Z,1008.41
2018-04-16T11:10:48.068Z,1008.40
2018-04-16T11:11:48.082Z,1008.40
2018-04-16T11:12:48.089Z,1008.38
2018-04-16T11:13:48.091Z,1008.35
2018-04-16T11:14:48.098Z,1008.42
2018-04-16T11:15:48.101Z,1008.32
2018-04-16T11:16:48.107Z,1008.42
2018-04-16T11:17:48.113Z,1008.43
2018-04-16T11:18:48.121Z,1008.30
2018-04-16T11:19:48.127Z,1008.34
2018-04-16T11:20:48.137Z,1008.36
2018-04-16T11:21:48.139Z,1008.38
2018-04-16T11:22:48.148Z,1008.45
2018-04-16T11:23:48.155Z,1008.38
2018-04-16T11:24:48.162Z,1008.45
2018-04-16T11:25:48.166Z,1008.43
2018-04-16T11:26:48.175Z,1008.42
2018-04-16T11:27:48.180Z,1008.47
2018-04-16T11:28:48.181Z,1008.51
2018-04-16T11:29:48.186Z,1008.45
2018-04-16T11:30:48.192Z,1008.46
2018-04-16T11:31:48.201Z,1008.48
2018-04-16T11:32:48.204Z,1008.50
2018-04-16T11:33:48.249Z,1008.54
2018-04-16T11:34:48.211Z,1008.49
2018-04-16T11:35:48.214Z,1008.59
2018-04-16T11:36:48.217Z,1008.56
2018-04-16T11:37:48.224Z,1008.59
2018-04-16T11:38:48.229Z,1008.58
2018-04-16T11:39:48.238Z,1008.55
2018-04-16T11:40:48.240Z,1008.55
2018-04-16T11:41:48.250Z,1008.49
2018-04-16T11:42:48.254Z,1008.56
2018-04-16T11:43:48.258Z,1008.51
2018-04-16T11:44:48.265Z,1008.58
2018-04-16T11:45:48.274Z,1008.61
2018-04-16T11:46:48.281Z,1008.59
2018-04-16T11:47:48.288Z,1008.62
2018-04-16T11:48:48.290Z,1008.67
2018-04-16T11:49:48.296Z,1008.66
2018-04-16T11:50:48.383Z,1008.64
2018-04-16T11:51:48.319Z,1008.68
2018-04-16T11:52:48.314Z,1008.61
2018-04-16T11:53:48.318Z,1008.64
2018-04-16T11:54:48.323Z,1008.66
2018-04-16T11:55:48.342Z,1008.61
2018-04-16T11:56:48.336Z,1008.66
2018-04-16T11:57:48.344Z,1008.60
2018-04-16T11:58:48.351Z,1008.58
2018-04-16T11:59:48.375Z,1008.66
2018-04-16T12:00:48.363Z,1008.67
2018-04-16T12:01:48.368Z,1008.67
2018-04-16T12:02:48.373Z,1008.68
2018-04-16T12:03:48.377Z,1008.65
2018-04-16T12:04:48.385Z,1008.65
2018-04-16T12:05:48.396Z,1008.66
2018-04-16T12:06:48.400Z,1008.60
2018-04-16T12:07:48.406Z,1008.71
2018-04-16T12:08:48.414Z,1008.71
2018-04-16T12:09:48.415Z,1008.69
2018-04-16T12:10:48.422Z,1008.67
2018-04-16T12:11:48.431Z,1008.78
2018-04-16T12:12:48.440Z,1008.75
2018-04-16T12:13:48.446Z,1008.80
2018-04-16T12:14:48.452Z,1008.76
2018-04-16T12:15:48.497Z,1008.83
2018-04-16T12:16:48.465Z,1008.80
2018-04-16T12:17:48.473Z,1008.74
2018-04-16T12:18:48.485Z,1008.69
2018-04-16T12:19:48.493Z,1008.75
2018-04-16T12:20:48.497Z,1008.77
2018-04-16T12:21:48.506Z,1008.72
2018-04-16T12:22:48.605Z,1008.76
2018-04-16T12:23:48.528Z,1008.71
2018-04-16T12:24:48.525Z,1008.71
2018-04-16T12:25:48.536Z,1008.79
2018-04-16T12:26:48.545Z,1008.63
2018-04-16T12:27:48.602Z,1008.57